sensor_id;sensor_type;location;lat;lon;timestamp;pressure;altitude;pressure_sealevel;temperature;humidity
51849;BME280;38952;51.090;-1.832;2022-10-16T00:00:38;99346.41;;;9.93;100.00
51849;BME280;38952;51.090;-1.832;2022-10-16T00:03:05;99368.91;;;10.09;100.00
51849;BME280;38952;51.090;-1.832;2022-10-16T00:05:30;99355.97;;;10.20;100.00
51849;BME280;38952;51.090;-1.832;2022-10-16T00:07:56;99377.47;;;10.27;98.92
51849;BME280;38952;51.090;-1.832;2022-10-16T00:10:21;99373.66;;;10.28;98.58
51849;BME280;38952;51.090;-1.832;2022-10-16T00:12:47;99381.31;;;10.26;98.85
51849;BME280;38952;51.090;-1.832;2022-10-16T00:15:13;99384.41;;;10.19;98.44
51849;BME280;38952;51.090;-1.832;2022-10-16T00:17:38;99376.75;;;10.16;98.78
51849;BME280;38952;51.090;-1.832;2022-10-16T00:20:04;99385.78;;;10.17;99.28
51849;BME280;38952;51.090;-1.832;2022-10-16T00:22:30;99401.91;;;10.13;99.71
51849;BME280;38952;51.090;-1.832;2022-10-16T00:24:55;99377.91;;;10.10;99.39
51849;BME280;38952;51.090;-1.832;2022-10-16T00:27:21;99386.97;;;10.05;99.54
51849;BME280;38952;51.090;-1.832;2022-10-16T00:29:50;99395.78;;;9.97;99.70
51849;BME280;38952;51.090;-1.832;2022-10-16T00:32:17;99380.84;;;9.89;100.00
51849;BME280;38952;51.090;-1.832;2022-10-16T00:34:43;99395.97;;;9.76;100.00
51849;BME280;38952;51.090;-1.832;2022-10-16T00:37:08;99387.84;;;9.71;100.00
51849;BME280;38952;51.090;-1.832;2022-10-16T00:39:34;99391.91;;;9.74;100.00
51849;BME280;38952;51.090;-1.832;2022-10-16T00:42:00;99388.56;;;9.82;100.00
51849;BME280;38952;51.090;-1.832;2022-10-16T00:44:46;99387.97;;;9.85;100.00
51849;BME280;38952;51.090;-1.832;2022-10-16T00:47:34;99389.09;;;9.84;99.40
51849;BME280;38952;51.090;-1.832;2022-10-16T00:50:10;99389.94;;;9.79;99.26
51849;BME280;38952;51.090;-1.832;2022-10-16T00:52:39;99401.19;;;9.73;99.31
51849;BME280;38952;51.090;-1.832;2022-10-16T00:55:08;99401.78;;;9.70;98.82
51849;BME280;38952;51.090;-1.832;2022-10-16T00:57:34;99403.94;;;9.68;98.28
51849;BME280;38952;51.090;-1.832;2022-10-16T01:00:00;99394.19;;;9.61;96.61
51849;BME280;38952;51.090;-1.832;2022-10-16T01:02:26;99416.81;;;9.62;96.05
51849;BME280;38952;51.090;-1.832;2022-10-16T01:04:52;99451.47;;;9.67;93.63
51849;BME280;38952;51.090;-1.832;2022-10-16T01:07:44;99415.13;;;9.71;92.75
51849;BME280;38952;51.090;-1.832;2022-10-16T01:12:50;99412.06;;;9.78;86.36
51849;BME280;38952;51.090;-1.832;2022-10-16T01:15:27;99402.19;;;9.82;86.50
51849;BME280;38952;51.090;-1.832;2022-10-16T01:20:37;99407.72;;;9.77;85.89
51849;BME280;38952;51.090;-1.832;2022-10-16T01:29:20;99413.75;;;9.74;86.26
51849;BME280;38952;51.090;-1.832;2022-10-16T01:31:52;99435.03;;;9.72;86.63
51849;BME280;38952;51.090;-1.832;2022-10-16T01:34:29;99418.47;;;9.63;86.92
51849;BME280;38952;51.090;-1.832;2022-10-16T01:37:04;99421.97;;;9.69;86.93
51849;BME280;38952;51.090;-1.832;2022-10-16T01:39:33;99428.00;;;9.66;87.30
51849;BME280;38952;51.090;-1.832;2022-10-16T01:42:06;99429.38;;;9.63;87.63
51849;BME280;38952;51.090;-1.832;2022-10-16T01:44:33;99423.69;;;9.59;88.02
51849;BME280;38952;51.090;-1.832;2022-10-16T01:47:01;99430.81;;;9.55;88.57
51849;BME280;38952;51.090;-1.832;2022-10-16T01:49:30;99443.38;;;9.51;88.56
51849;BME280;38952;51.090;-1.832;2022-10-16T01:51:59;99432.19;;;9.53;88.20
51849;BME280;38952;51.090;-1.832;2022-10-16T01:54:28;99435.13;;;9.61;88.95
51849;BME280;38952;51.090;-1.832;2022-10-16T01:56:57;99441.66;;;9.66;88.63
51849;BME280;38952;51.090;-1.832;2022-10-16T01:59:26;99434.31;;;9.61;89.08
51849;BME280;38952;51.090;-1.832;2022-10-16T02:01:57;99440.66;;;9.51;89.11
51849;BME280;38952;51.090;-1.832;2022-10-16T02:04:30;99452.72;;;9.40;89.81
51849;BME280;38952;51.090;-1.832;2022-10-16T02:06:57;99448.69;;;9.27;90.41
51849;BME280;38952;51.090;-1.832;2022-10-16T02:09:22;99450.91;;;9.20;90.96
51849;BME280;38952;51.090;-1.832;2022-10-16T02:11:50;99451.22;;;9.13;91.82
51849;BME280;38952;51.090;-1.832;2022-10-16T02:14:18;99454.75;;;9.19;92.27
51849;BME280;38952;51.090;-1.832;2022-10-16T02:16:46;99455.56;;;9.24;91.73
51849;BME280;38952;51.090;-1.832;2022-10-16T02:19:16;99444.91;;;9.23;91.29
51849;BME280;38952;51.090;-1.832;2022-10-16T02:22:00;99455.78;;;9.28;90.93
51849;BME280;38952;51.090;-1.832;2022-10-16T02:29:46;99457.63;;;9.43;88.12
51849;BME280;38952;51.090;-1.832;2022-10-16T02:32:17;99458.16;;;9.45;87.93
51849;BME280;38952;51.090;-1.832;2022-10-16T02:34:45;99466.91;;;9.42;88.10
51849;BME280;38952;51.090;-1.832;2022-10-16T02:37:12;99452.16;;;9.43;87.56
51849;BME280;38952;51.090;-1.832;2022-10-16T02:39:38;99464.72;;;9.44;87.44
51849;BME280;38952;51.090;-1.832;2022-10-16T02:42:14;99474.81;;;9.43;87.97
51849;BME280;38952;51.090;-1.832;2022-10-16T02:44:40;99480.28;;;9.43;87.41
51849;BME280;38952;51.090;-1.832;2022-10-16T02:47:06;99492.56;;;9.41;88.30
51849;BME280;38952;51.090;-1.832;2022-10-16T02:49:31;99490.91;;;9.40;87.70
51849;BME280;38952;51.090;-1.832;2022-10-16T02:51:57;99494.78;;;9.39;87.38
51849;BME280;38952;51.090;-1.832;2022-10-16T02:54:22;99492.03;;;9.39;87.10
51849;BME280;38952;51.090;-1.832;2022-10-16T02:56:47;99506.22;;;9.36;87.32
51849;BME280;38952;51.090;-1.832;2022-10-16T02:59:13;99501.88;;;9.30;87.36
51849;BME280;38952;51.090;-1.832;2022-10-16T03:01:38;99507.34;;;9.30;87.65
51849;BME280;38952;51.090;-1.832;2022-10-16T03:04:04;99505.47;;;9.20;87.19
51849;BME280;38952;51.090;-1.832;2022-10-16T03:06:29;99507.72;;;9.07;87.89
51849;BME280;38952;51.090;-1.832;2022-10-16T03:08:55;99504.19;;;9.02;88.04
51849;BME280;38952;51.090;-1.832;2022-10-16T03:11:20;99505.84;;;8.98;88.33
51849;BME280;38952;51.090;-1.832;2022-10-16T03:13:46;99498.78;;;8.91;89.16
51849;BME280;38952;51.090;-1.832;2022-10-16T03:16:11;99504.22;;;8.97;88.70
51849;BME280;38952;51.090;-1.832;2022-10-16T03:18:36;99511.56;;;9.01;87.80
51849;BME280;38952;51.090;-1.832;2022-10-16T03:21:02;99506.38;;;9.00;87.01
51849;BME280;38952;51.090;-1.832;2022-10-16T03:23:27;99508.00;;;9.01;86.02
51849;BME280;38952;51.090;-1.832;2022-10-16T03:25:54;99529.00;;;9.00;85.70
51849;BME280;38952;51.090;-1.832;2022-10-16T03:28:19;99523.03;;;8.98;84.47
51849;BME280;38952;51.090;-1.832;2022-10-16T03:30:45;99521.63;;;9.01;83.80
51849;BME280;38952;51.090;-1.832;2022-10-16T03:33:10;99525.19;;;9.01;83.16
51849;BME280;38952;51.090;-1.832;2022-10-16T03:35:35;99530.94;;;9.00;82.31
51849;BME280;38952;51.090;-1.832;2022-10-16T03:38:01;99527.38;;;8.99;82.27
51849;BME280;38952;51.090;-1.832;2022-10-16T03:40:26;99533.66;;;8.95;82.19
51849;BME280;38952;51.090;-1.832;2022-10-16T03:42:52;99533.66;;;8.95;81.93
51849;BME280;38952;51.090;-1.832;2022-10-16T03:45:20;99535.84;;;8.93;81.94
51849;BME280;38952;51.090;-1.832;2022-10-16T03:47:45;99546.47;;;8.89;81.62
51849;BME280;38952;51.090;-1.832;2022-10-16T03:50:11;99556.03;;;8.91;81.32
51849;BME280;38952;51.090;-1.832;2022-10-16T03:52:36;99549.47;;;8.87;81.88
51849;BME280;38952;51.090;-1.832;2022-10-16T03:55:02;99554.94;;;8.87;81.70
51849;BME280;38952;51.090;-1.832;2022-10-16T03:57:28;99563.41;;;8.81;82.07
51849;BME280;38952;51.090;-1.832;2022-10-16T03:59:53;99571.31;;;8.77;82.32
51849;BME280;38952;51.090;-1.832;2022-10-16T04:02:18;99575.69;;;8.73;83.13
51849;BME280;38952;51.090;-1.832;2022-10-16T04:04:44;99576.22;;;8.70;83.49
51849;BME280;38952;51.090;-1.832;2022-10-16T04:07:09;99581.13;;;8.73;83.83
51849;BME280;38952;51.090;-1.832;2022-10-16T04:09:35;99588.50;;;8.78;84.07
51849;BME280;38952;51.090;-1.832;2022-10-16T04:12:00;99589.31;;;8.78;83.76
51849;BME280;38952;51.090;-1.832;2022-10-16T04:14:26;99592.03;;;8.73;84.45
51849;BME280;38952;51.090;-1.832;2022-10-16T04:16:51;99610.03;;;8.74;85.33
51849;BME280;38952;51.090;-1.832;2022-10-16T04:19:16;99594.22;;;8.71;85.36
51849;BME280;38952;51.090;-1.832;2022-10-16T04:21:44;99603.47;;;8.70;85.87
51849;BME280;38952;51.090;-1.832;2022-10-16T04:24:19;99610.31;;;8.72;85.90
51849;BME280;38952;51.090;-1.832;2022-10-16T04:26:44;99612.78;;;8.79;85.55
51849;BME280;38952;51.090;-1.832;2022-10-16T04:29:10;99615.47;;;8.84;85.62
51849;BME280;38952;51.090;-1.832;2022-10-16T04:31:35;99617.13;;;8.85;85.51
51849;BME280;38952;51.090;-1.832;2022-10-16T04:34:00;99623.66;;;8.89;85.50
51849;BME280;38952;51.090;-1.832;2022-10-16T04:36:26;99628.03;;;8.85;85.45
51849;BME280;38952;51.090;-1.832;2022-10-16T04:38:51;99630.75;;;8.85;85.79
51849;BME280;38952;51.090;-1.832;2022-10-16T04:41:17;99635.13;;;8.86;86.11
51849;BME280;38952;51.090;-1.832;2022-10-16T04:43:42;99630.75;;;8.85;86.17
51849;BME280;38952;51.090;-1.832;2022-10-16T04:46:08;99633.47;;;8.85;86.37
51849;BME280;38952;51.090;-1.832;2022-10-16T04:48:35;99643.56;;;8.85;86.28
51849;BME280;38952;51.090;-1.832;2022-10-16T04:51:01;99642.19;;;8.87;86.43
51849;BME280;38952;51.090;-1.832;2022-10-16T04:53:26;99647.09;;;8.90;86.05
51849;BME280;38952;51.090;-1.832;2022-10-16T04:55:51;99636.75;;;8.93;86.23
51849;BME280;38952;51.090;-1.832;2022-10-16T04:58:17;99646.00;;;8.97;85.95
51849;BME280;38952;51.090;-1.832;2022-10-16T05:00:43;99654.19;;;8.97;85.60
51849;BME280;38952;51.090;-1.832;2022-10-16T05:03:09;99644.94;;;8.93;85.75
51849;BME280;38952;51.090;-1.832;2022-10-16T05:05:35;99654.75;;;8.94;85.49
51849;BME280;38952;51.090;-1.832;2022-10-16T05:08:02;99665.09;;;8.97;85.73
51849;BME280;38952;51.090;-1.832;2022-10-16T05:10:28;99666.72;;;8.98;85.86
51849;BME280;38952;51.090;-1.832;2022-10-16T05:12:53;99678.72;;;8.91;86.12
51849;BME280;38952;51.090;-1.832;2022-10-16T05:15:18;99684.19;;;8.86;85.85
51849;BME280;38952;51.090;-1.832;2022-10-16T05:17:44;99686.91;;;8.81;85.90
51849;BME280;38952;51.090;-1.832;2022-10-16T05:20:13;99689.66;;;8.76;86.87
51849;BME280;38952;51.090;-1.832;2022-10-16T05:22:38;99685.53;;;8.68;86.45
51849;BME280;38952;51.090;-1.832;2022-10-16T05:25:04;99690.72;;;8.70;86.40
51849;BME280;38952;51.090;-1.832;2022-10-16T05:27:29;99692.91;;;8.68;86.76
51849;BME280;38952;51.090;-1.832;2022-10-16T05:29:55;99699.69;;;8.65;86.75
51849;BME280;38952;51.090;-1.832;2022-10-16T05:32:20;99704.91;;;8.62;86.94
51849;BME280;38952;51.090;-1.832;2022-10-16T05:34:48;99707.06;;;8.60;87.35
51849;BME280;38952;51.090;-1.832;2022-10-16T05:37:16;99710.88;;;8.59;87.31
51849;BME280;38952;51.090;-1.832;2022-10-16T05:39:41;99713.03;;;8.56;87.19
51849;BME280;38952;51.090;-1.832;2022-10-16T05:42:07;99701.31;;;8.46;87.23
51849;BME280;38952;51.090;-1.832;2022-10-16T05:44:32;99712.97;;;8.36;87.43
51849;BME280;38952;51.090;-1.832;2022-10-16T05:46:58;99718.94;;;8.28;87.67
51849;BME280;38952;51.090;-1.832;2022-10-16T05:49:23;99717.84;;;8.18;87.94
51849;BME280;38952;51.090;-1.832;2022-10-16T05:51:49;99723.28;;;8.18;88.27
51849;BME280;38952;51.090;-1.832;2022-10-16T05:54:14;99723.00;;;8.15;87.81
51849;BME280;38952;51.090;-1.832;2022-10-16T05:56:40;99729.25;;;8.15;88.37
51849;BME280;38952;51.090;-1.832;2022-10-16T05:59:06;99729.25;;;8.15;88.46
51849;BME280;38952;51.090;-1.832;2022-10-16T06:01:31;99728.72;;;8.18;88.45
51849;BME280;38952;51.090;-1.832;2022-10-16T06:03:57;99742.88;;;8.20;87.84
51849;BME280;38952;51.090;-1.832;2022-10-16T06:06:25;99734.16;;;8.13;88.15
51849;BME280;38952;51.090;-1.832;2022-10-16T06:08:52;99736.84;;;8.08;88.49
51849;BME280;38952;51.090;-1.832;2022-10-16T06:11:24;99742.25;;;8.03;88.69
51849;BME280;38952;51.090;-1.832;2022-10-16T06:13:51;99735.16;;;7.92;89.06
51849;BME280;38952;51.090;-1.832;2022-10-16T06:16:17;99753.63;;;7.84;88.69
51849;BME280;38952;51.090;-1.832;2022-10-16T06:18:43;99744.28;;;7.70;88.92
51849;BME280;38952;51.090;-1.832;2022-10-16T06:21:12;99753.25;;;7.65;89.91
51849;BME280;38952;51.090;-1.832;2022-10-16T06:23:37;99749.09;;;7.58;89.90
51849;BME280;38952;51.090;-1.832;2022-10-16T06:26:11;99748.28;;;7.52;89.93
51849;BME280;38952;51.090;-1.832;2022-10-16T06:28:38;99751.22;;;7.45;89.39
51849;BME280;38952;51.090;-1.832;2022-10-16T06:31:05;99759.91;;;7.42;90.35
51849;BME280;38952;51.090;-1.832;2022-10-16T06:33:31;99764.81;;;7.45;90.30
51849;BME280;38952;51.090;-1.832;2022-10-16T06:36:05;99763.75;;;7.46;89.81
51849;BME280;38952;51.090;-1.832;2022-10-16T06:38:31;99765.63;;;7.46;89.47
51849;BME280;38952;51.090;-1.832;2022-10-16T06:40:57;99763.16;;;7.44;89.74
51849;BME280;38952;51.090;-1.832;2022-10-16T06:43:23;99765.41;;;7.53;89.76
51849;BME280;38952;51.090;-1.832;2022-10-16T06:45:56;99774.13;;;7.55;90.08
51849;BME280;38952;51.090;-1.832;2022-10-16T06:48:22;99776.31;;;7.58;90.21
51849;BME280;38952;51.090;-1.832;2022-10-16T06:51:04;99778.28;;;7.67;89.39
51849;BME280;38952;51.090;-1.832;2022-10-16T06:53:33;99780.00;;;7.79;89.54
51849;BME280;38952;51.090;-1.832;2022-10-16T06:56:20;99790.94;;;7.89;89.41
51849;BME280;38952;51.090;-1.832;2022-10-16T06:58:47;99791.53;;;7.96;89.11
51849;BME280;38952;51.090;-1.832;2022-10-16T07:01:16;99802.69;;;8.00;89.45
51849;BME280;38952;51.090;-1.832;2022-10-16T07:03:44;99802.69;;;8.00;89.42
51849;BME280;38952;51.090;-1.832;2022-10-16T07:06:17;99808.16;;;8.00;88.99
51849;BME280;38952;51.090;-1.832;2022-10-16T07:08:44;99818.00;;;8.06;89.05
51849;BME280;38952;51.090;-1.832;2022-10-16T07:11:13;99821.84;;;8.15;88.91
51849;BME280;38952;51.090;-1.832;2022-10-16T07:13:40;99829.22;;;8.20;88.88
51849;BME280;38952;51.090;-1.832;2022-10-16T07:16:11;99831.72;;;8.32;88.53
51849;BME280;38952;51.090;-1.832;2022-10-16T07:18:36;99838.09;;;8.48;88.38
51849;BME280;38952;51.090;-1.832;2022-10-16T07:21:10;99833.59;;;8.95;89.58
51849;BME280;38952;51.090;-1.832;2022-10-16T07:23:36;99831.44;;;9.94;86.35
51849;BME280;38952;51.090;-1.832;2022-10-16T07:26:02;99837.16;;;10.84;82.29
51849;BME280;38952;51.090;-1.832;2022-10-16T07:28:28;99836.91;;;11.55;78.34
51849;BME280;38952;51.090;-1.832;2022-10-16T07:30:54;99847.19;;;12.51;74.81
51849;BME280;38952;51.090;-1.832;2022-10-16T07:33:20;99854.78;;;13.40;71.56
51849;BME280;38952;51.090;-1.832;2022-10-16T07:35:53;99860.69;;;14.55;67.10
51849;BME280;38952;51.090;-1.832;2022-10-16T07:38:20;99857.22;;;15.28;64.56
51849;BME280;38952;51.090;-1.832;2022-10-16T07:40:45;99857.94;;;14.83;63.90
51849;BME280;38952;51.090;-1.832;2022-10-16T07:43:12;99860.81;;;13.56;66.47
51849;BME280;38952;51.090;-1.832;2022-10-16T07:45:40;99861.47;;;12.53;69.06
51849;BME280;38952;51.090;-1.832;2022-10-16T07:48:11;99860.84;;;12.08;72.56
51849;BME280;38952;51.090;-1.832;2022-10-16T07:50:36;99874.72;;;13.27;71.91
51849;BME280;38952;51.090;-1.832;2022-10-16T07:53:02;99867.78;;;15.34;65.73
51849;BME280;38952;51.090;-1.832;2022-10-16T07:55:28;99872.06;;;17.15;58.71
51849;BME280;38952;51.090;-1.832;2022-10-16T07:57:54;99862.75;;;18.46;54.11
51849;BME280;38952;51.090;-1.832;2022-10-16T08:00:20;99870.22;;;19.35;50.98
51849;BME280;38952;51.090;-1.832;2022-10-16T08:02:45;99866.81;;;20.17;48.71
51849;BME280;38952;51.090;-1.832;2022-10-16T08:05:11;99877.16;;;20.91;46.52
51849;BME280;38952;51.090;-1.832;2022-10-16T08:07:36;99881.81;;;21.68;45.02
51849;BME280;38952;51.090;-1.832;2022-10-16T08:10:02;99888.66;;;22.15;43.72
51849;BME280;38952;51.090;-1.832;2022-10-16T08:12:27;99895.09;;;22.63;43.58
51849;BME280;38952;51.090;-1.832;2022-10-16T08:14:53;99893.91;;;23.32;41.63
51849;BME280;38952;51.090;-1.832;2022-10-16T08:17:18;99899.16;;;23.57;40.99
51849;BME280;38952;51.090;-1.832;2022-10-16T08:19:45;99909.72;;;24.49;39.66
51849;BME280;38952;51.090;-1.832;2022-10-16T08:22:10;99910.31;;;25.38;37.50
51849;BME280;38952;51.090;-1.832;2022-10-16T08:24:36;99917.00;;;25.60;36.44
51849;BME280;38952;51.090;-1.832;2022-10-16T08:27:02;99917.09;;;26.43;35.18
51849;BME280;38952;51.090;-1.832;2022-10-16T08:29:28;99922.47;;;26.18;34.02
51849;BME280;38952;51.090;-1.832;2022-10-16T08:31:53;99922.50;;;25.87;34.34
51849;BME280;38952;51.090;-1.832;2022-10-16T08:34:19;99923.53;;;25.72;33.88
51849;BME280;38952;51.090;-1.832;2022-10-16T08:36:44;99926.22;;;25.99;33.55
51849;BME280;38952;51.090;-1.832;2022-10-16T08:39:09;99925.38;;;25.94;33.12
51849;BME280;38952;51.090;-1.832;2022-10-16T08:44:07;99930.50;;;25.55;33.73
51849;BME280;38952;51.090;-1.832;2022-10-16T08:49:30;99929.19;;;25.45;33.43
51849;BME280;38952;51.090;-1.832;2022-10-16T08:51:56;99924.97;;;25.58;33.29
51849;BME280;38952;51.090;-1.832;2022-10-16T08:54:29;99932.88;;;26.17;32.46
51849;BME280;38952;51.090;-1.832;2022-10-16T08:57:07;99944.22;;;26.73;31.66
51849;BME280;38952;51.090;-1.832;2022-10-16T08:59:34;99946.22;;;28.12;31.44
51849;BME280;38952;51.090;-1.832;2022-10-16T09:01:59;99946.13;;;29.74;29.90
51849;BME280;38952;51.090;-1.832;2022-10-16T09:04:48;99950.38;;;31.62;27.34
51849;BME280;38952;51.090;-1.832;2022-10-16T09:10:17;99961.53;;;34.66;25.79
51849;BME280;38952;51.090;-1.832;2022-10-16T09:13:17;99950.69;;;34.44;25.55
51849;BME280;38952;51.090;-1.832;2022-10-16T09:21:40;99953.78;;;34.67;25.47
51849;BME280;38952;51.090;-1.832;2022-10-16T09:24:17;99945.50;;;33.66;24.91
51849;BME280;38952;51.090;-1.832;2022-10-16T09:26:44;99956.25;;;33.35;25.07
51849;BME280;38952;51.090;-1.832;2022-10-16T09:29:14;99950.41;;;34.39;24.18
51849;BME280;38952;51.090;-1.832;2022-10-16T09:31:42;99949.16;;;35.81;23.05
51849;BME280;38952;51.090;-1.832;2022-10-16T09:34:34;99948.28;;;36.61;21.70
51849;BME280;38952;51.090;-1.832;2022-10-16T09:37:08;99938.16;;;36.09;19.49
51849;BME280;38952;51.090;-1.832;2022-10-16T09:39:53;99945.06;;;35.82;19.50
51849;BME280;38952;51.090;-1.832;2022-10-16T09:42:31;99952.84;;;36.20;19.11
51849;BME280;38952;51.090;-1.832;2022-10-16T09:44:57;99940.28;;;35.79;18.87
51849;BME280;38952;51.090;-1.832;2022-10-16T09:47:25;99949.97;;;35.52;19.16
51849;BME280;38952;51.090;-1.832;2022-10-16T09:49:53;99958.28;;;36.27;19.57
51849;BME280;38952;51.090;-1.832;2022-10-16T09:52:21;99958.22;;;37.40;18.97
51849;BME280;38952;51.090;-1.832;2022-10-16T09:54:55;99955.38;;;37.40;18.81
51849;BME280;38952;51.090;-1.832;2022-10-16T09:57:22;99952.91;;;35.91;19.74
51849;BME280;38952;51.090;-1.832;2022-10-16T09:59:58;99942.72;;;32.75;21.95
51849;BME280;38952;51.090;-1.832;2022-10-16T10:04:55;99938.75;;;31.56;24.34
51849;BME280;38952;51.090;-1.832;2022-10-16T10:07:31;99936.69;;;32.73;23.73
51849;BME280;38952;51.090;-1.832;2022-10-16T10:10:02;99933.50;;;33.79;22.87
51849;BME280;38952;51.090;-1.832;2022-10-16T10:12:30;99936.81;;;35.29;21.85
51849;BME280;38952;51.090;-1.832;2022-10-16T10:15:10;99948.34;;;35.80;20.59
51849;BME280;38952;51.090;-1.832;2022-10-16T10:18:19;99947.22;;;35.03;21.13
51849;BME280;38952;51.090;-1.832;2022-10-16T10:20:57;99945.00;;;33.91;22.32
51849;BME280;38952;51.090;-1.832;2022-10-16T10:23:25;99942.09;;;34.48;22.63
51849;BME280;38952;51.090;-1.832;2022-10-16T10:25:58;99939.94;;;35.18;21.66
51849;BME280;38952;51.090;-1.832;2022-10-16T10:28:37;99942.88;;;35.44;20.67
51849;BME280;38952;51.090;-1.832;2022-10-16T10:36:40;99957.69;;;33.23;22.09
51849;BME280;38952;51.090;-1.832;2022-10-16T10:39:38;99949.84;;;32.60;23.14
51849;BME280;38952;51.090;-1.832;2022-10-16T10:42:27;99948.28;;;33.06;23.32
51849;BME280;38952;51.090;-1.832;2022-10-16T11:02:00;99940.00;;;39.59;16.71
51849;BME280;38952;51.090;-1.832;2022-10-16T11:07:16;99936.44;;;35.56;19.90
51849;BME280;38952;51.090;-1.832;2022-10-16T11:09:57;99945.97;;;35.79;20.70
51849;BME280;38952;51.090;-1.832;2022-10-16T11:12:39;99946.88;;;35.46;20.68
51849;BME280;38952;51.090;-1.832;2022-10-16T11:20:37;99940.22;;;39.89;18.20
51849;BME280;38952;51.090;-1.832;2022-10-16T11:25:38;99939.03;;;39.06;16.86
51849;BME280;38952;51.090;-1.832;2022-10-16T11:28:27;99937.09;;;37.50;17.76
51849;BME280;38952;51.090;-1.832;2022-10-16T11:33:40;99947.00;;;35.43;20.17
51849;BME280;38952;51.090;-1.832;2022-10-16T11:36:38;99939.56;;;34.17;20.97
51849;BME280;38952;51.090;-1.832;2022-10-16T11:39:24;99940.56;;;32.32;22.52
51849;BME280;38952;51.090;-1.832;2022-10-16T11:44:33;99935.03;;;33.63;22.50
51849;BME280;38952;51.090;-1.832;2022-10-16T11:49:59;99925.94;;;36.73;19.46
51849;BME280;38952;51.090;-1.832;2022-10-16T11:57:38;99935.28;;;37.65;17.65
51849;BME280;38952;51.090;-1.832;2022-10-16T12:08:15;99916.91;;;34.50;20.54
51849;BME280;38952;51.090;-1.832;2022-10-16T12:10:46;99916.94;;;34.14;20.85
51849;BME280;38952;51.090;-1.832;2022-10-16T12:13:36;99912.84;;;36.62;20.08
51849;BME280;38952;51.090;-1.832;2022-10-16T12:16:05;99921.69;;;38.91;17.85
51849;BME280;38952;51.090;-1.832;2022-10-16T12:18:32;99903.91;;;39.61;16.64
51849;BME280;38952;51.090;-1.832;2022-10-16T12:20:58;99914.72;;;40.09;15.83
51849;BME280;38952;51.090;-1.832;2022-10-16T12:23:29;99909.78;;;38.84;16.62
51849;BME280;38952;51.090;-1.832;2022-10-16T12:25:59;99913.25;;;37.88;17.33
51849;BME280;38952;51.090;-1.832;2022-10-16T12:28:29;99911.78;;;35.53;19.04
51849;BME280;38952;51.090;-1.832;2022-10-16T12:31:02;99906.41;;;34.14;20.22
51849;BME280;38952;51.090;-1.832;2022-10-16T12:33:40;99897.91;;;33.57;21.22
51849;BME280;38952;51.090;-1.832;2022-10-16T12:36:15;99898.81;;;34.44;20.50
51849;BME280;38952;51.090;-1.832;2022-10-16T12:38:51;99909.00;;;35.20;20.17
51849;BME280;38952;51.090;-1.832;2022-10-16T12:43:53;99912.75;;;36.53;18.49
51849;BME280;38952;51.090;-1.832;2022-10-16T12:46:33;99897.16;;;36.45;17.96
51849;BME280;38952;51.090;-1.832;2022-10-16T12:51:37;99884.00;;;33.83;19.99
51849;BME280;38952;51.090;-1.832;2022-10-16T12:57:25;99884.66;;;35.06;20.50
51849;BME280;38952;51.090;-1.832;2022-10-16T13:00:13;99887.28;;;35.85;18.32
51849;BME280;38952;51.090;-1.832;2022-10-16T13:11:25;99867.53;;;31.00;21.99
51849;BME280;38952;51.090;-1.832;2022-10-16T13:19:34;99852.06;;;31.46;22.53
51849;BME280;38952;51.090;-1.832;2022-10-16T13:22:15;99859.06;;;31.96;22.91
51849;BME280;38952;51.090;-1.832;2022-10-16T13:24:48;99852.19;;;34.45;21.37
51849;BME280;38952;51.090;-1.832;2022-10-16T13:30:01;99843.03;;;37.28;17.89
51849;BME280;38952;51.090;-1.832;2022-10-16T13:32:27;99850.81;;;36.57;18.05
51849;BME280;38952;51.090;-1.832;2022-10-16T13:34:53;99847.09;;;34.86;19.14
51849;BME280;38952;51.090;-1.832;2022-10-16T13:37:21;99846.66;;;31.90;21.80
51849;BME280;38952;51.090;-1.832;2022-10-16T13:39:47;99827.38;;;28.80;25.69
51849;BME280;38952;51.090;-1.832;2022-10-16T13:42:24;99847.22;;;27.34;28.06
51849;BME280;38952;51.090;-1.832;2022-10-16T13:44:53;99833.88;;;26.51;29.79
51849;BME280;38952;51.090;-1.832;2022-10-16T13:47:20;99835.72;;;25.53;31.15
51849;BME280;38952;51.090;-1.832;2022-10-16T13:49:47;99826.22;;;24.20;32.86
51849;BME280;38952;51.090;-1.832;2022-10-16T13:52:20;99829.53;;;23.05;34.92
51849;BME280;38952;51.090;-1.832;2022-10-16T13:54:46;99831.47;;;22.49;37.82
51849;BME280;38952;51.090;-1.832;2022-10-16T13:57:16;99830.63;;;21.85;37.78
51849;BME280;38952;51.090;-1.832;2022-10-16T13:59:42;99817.28;;;21.34;39.60
51849;BME280;38952;51.090;-1.832;2022-10-16T14:02:22;99817.66;;;20.67;41.26
51849;BME280;38952;51.090;-1.832;2022-10-16T14:04:50;99805.88;;;20.21;42.60
51849;BME280;38952;51.090;-1.832;2022-10-16T14:07:28;99817.84;;;20.00;42.65
51849;BME280;38952;51.090;-1.832;2022-10-16T14:09:55;99825.00;;;19.56;44.47
51849;BME280;38952;51.090;-1.832;2022-10-16T14:12:22;99826.13;;;19.21;45.08
51849;BME280;38952;51.090;-1.832;2022-10-16T14:14:53;99811.28;;;19.05;45.61
51849;BME280;38952;51.090;-1.832;2022-10-16T14:17:23;99806.41;;;19.01;46.15
51849;BME280;38952;51.090;-1.832;2022-10-16T14:19:51;99802.41;;;19.11;47.44
51849;BME280;38952;51.090;-1.832;2022-10-16T14:22:26;99809.38;;;18.96;48.22
51849;BME280;38952;51.090;-1.832;2022-10-16T14:24:54;99802.09;;;18.62;49.83
51849;BME280;38952;51.090;-1.832;2022-10-16T14:30:13;99787.78;;;17.91;51.01
51849;BME280;38952;51.090;-1.832;2022-10-16T14:32:56;99785.38;;;17.72;52.23
51849;BME280;38952;51.090;-1.832;2022-10-16T14:35:28;99782.25;;;17.74;53.38
51849;BME280;38952;51.090;-1.832;2022-10-16T14:37:55;99786.38;;;17.59;53.66
51849;BME280;38952;51.090;-1.832;2022-10-16T14:40:27;99793.06;;;17.49;54.39
51849;BME280;38952;51.090;-1.832;2022-10-16T14:42:55;99774.06;;;17.39;54.91
51849;BME280;38952;51.090;-1.832;2022-10-16T14:45:23;99771.59;;;17.46;54.71
51849;BME280;38952;51.090;-1.832;2022-10-16T14:47:54;99767.22;;;17.54;55.42
51849;BME280;38952;51.090;-1.832;2022-10-16T14:50:21;99772.88;;;17.57;55.05
51849;BME280;38952;51.090;-1.832;2022-10-16T14:52:47;99772.91;;;17.49;55.91
51849;BME280;38952;51.090;-1.832;2022-10-16T14:55:13;99777.13;;;17.46;55.96
51849;BME280;38952;51.090;-1.832;2022-10-16T14:57:42;99764.66;;;17.31;57.49
51849;BME280;38952;51.090;-1.832;2022-10-16T15:00:24;99760.25;;;17.21;56.96
51849;BME280;38952;51.090;-1.832;2022-10-16T15:02:50;99765.16;;;17.24;57.95